Time;durP1;ratioP1;P1;durP2;ratioP2;P2;SDS_P1;SDS_P2;PMS_P1;PMS_P2;Temp;Humidity;BMP_temperature;BMP_pressure;BME280_temperature;BME280_humidity;BME280_pressure;Samples;Min_cycle;Max_cycle;Signal;HPM_P1;HPM_P2
2021/08/04 00:01:33;;;;;;;1.50;0.80;;;20.40;72.90;;;;;;4988363;28;20077;-85
2021/08/04 00:03:58;;;;;;;1.58;0.60;;;20.40;73.20;;;;;;4986467;28;20038;-84
2021/08/04 00:06:24;;;;;;;1.73;1.00;;;20.40;73.50;;;;;;4987242;28;20030;-83
2021/08/04 00:08:50;;;;;;;1.92;0.60;;;20.30;73.50;;;;;;4988161;28;20113;-86
2021/08/04 00:11:16;;;;;;;3.50;0.68;;;20.40;73.50;;;;;;4987401;28;20483;-79
2021/08/04 00:13:41;;;;;;;1.63;0.77;;;20.40;73.60;;;;;;4988246;28;20038;-83
2021/08/04 00:16:07;;;;;;;3.90;0.52;;;20.40;73.80;;;;;;4970205;28;20044;-84
2021/08/04 00:18:33;;;;;;;2.55;0.70;;;20.40;73.90;;;;;;4987133;28;20018;-78
2021/08/04 00:20:59;;;;;;;1.63;0.70;;;20.40;73.80;;;;;;4986636;28;20122;-78
2021/08/04 00:23:24;;;;;;;1.92;0.70;;;20.40;73.90;;;;;;4970394;28;20023;-84
2021/08/04 00:25:50;;;;;;;7.30;0.70;;;20.40;74.10;;;;;;4987317;28;20026;-84
2021/08/04 00:28:16;;;;;;;1.60;0.70;;;20.40;74.10;;;;;;4970330;28;20038;-78
2021/08/04 00:30:41;;;;;;;1.70;0.60;;;20.40;74.30;;;;;;4987410;28;20042;-84
2021/08/04 00:33:08;;;;;;;7.32;0.70;;;20.40;74.40;;;;;;4988129;28;20037;-87
2021/08/04 00:35:33;;;;;;;2.40;0.80;;;20.40;74.80;;;;;;4988473;28;20555;-86
2021/08/04 00:37:59;;;;;;;2.03;0.82;;;20.30;75.00;;;;;;4986896;28;20165;-87
2021/08/04 00:40:25;;;;;;;6.25;0.80;;;20.30;75.30;;;;;;4986382;28;20034;-86
2021/08/04 00:42:50;;;;;;;2.20;0.90;;;20.30;75.30;;;;;;4970053;28;20195;-83
2021/08/04 00:45:16;;;;;;;1.92;0.85;;;20.30;75.50;;;;;;4986223;28;20124;-84
2021/08/04 00:47:42;;;;;;;2.85;0.63;;;20.30;75.90;;;;;;4986076;28;20483;-83
2021/08/04 00:50:09;;;;;;;1.38;0.77;;;20.20;76.10;;;;;;4986565;28;20113;-84
2021/08/04 00:52:35;;;;;;;1.88;0.65;;;20.20;76.30;;;;;;4970234;28;20026;-86
2021/08/04 00:55:01;;;;;;;2.95;0.93;;;20.20;76.40;;;;;;4987319;28;20084;-86
2021/08/04 00:57:27;;;;;;;2.58;0.75;;;20.10;76.50;;;;;;4986032;28;20435;-84
2021/08/04 00:59:53;;;;;;;2.33;0.73;;;20.10;77.00;;;;;;4970121;28;20034;-85
2021/08/04 01:02:30;;;;;;;3.20;0.80;;;20.00;76.90;;;;;;4970274;28;20026;-86
2021/08/04 01:05:02;;;;;;;4.18;0.80;;;20.10;76.60;;;;;;4986247;28;20041;-83
2021/08/04 01:07:36;;;;;;;1.15;0.70;;;20.00;76.10;;;;;;4986131;28;20033;-83
2021/08/04 01:10:09;;;;;;;2.38;0.60;;;20.10;75.70;;;;;;4985972;28;20570;-85
2021/08/04 01:12:59;;;;;;;3.10;0.80;;;20.10;76.20;;;;;;4968630;28;20037;-82
2021/08/04 01:15:28;;;;;;;2.67;0.60;;;20.10;75.90;;;;;;4987277;28;20161;-85
2021/08/04 01:17:55;;;;;;;2.72;0.60;;;20.10;76.10;;;;;;4986263;28;20027;-85
2021/08/04 01:20:26;;;;;;;2.08;0.70;;;20.10;75.30;;;;;;4985955;28;20613;-84
2021/08/04 01:23:12;;;;;;;1.15;0.80;;;20.10;75.70;;;;;;4986315;28;20026;-85
2021/08/04 01:26:02;;;;;;;1.63;0.75;;;20.20;75.20;;;;;;4969087;28;20040;-83
2021/08/04 01:28:45;;;;;;;2.28;0.77;;;20.30;74.60;;;;;;4985720;28;20038;-86
2021/08/04 01:31:13;;;;;;;4.03;0.82;;;20.30;74.30;;;;;;4985419;28;20030;-83
2021/08/04 01:33:43;;;;;;;5.50;1.00;;;20.30;74.10;;;;;;4985910;28;20507;-85
2021/08/04 01:36:09;;;;;;;1.95;1.00;;;20.30;74.20;;;;;;4985580;28;20038;-85
2021/08/04 01:38:37;;;;;;;4.90;0.85;;;20.40;73.90;;;;;;4985667;28;20042;-84
2021/08/04 01:41:04;;;;;;;1.75;0.60;;;20.40;73.90;;;;;;4984737;28;20037;-85
2021/08/04 01:43:30;;;;;;;2.08;0.70;;;20.40;73.80;;;;;;4986028;28;20034;-86
2021/08/04 01:45:57;;;;;;;4.88;0.73;;;20.40;73.80;;;;;;4987157;28;20034;-83
2021/08/04 01:48:24;;;;;;;1.92;0.68;;;20.40;73.90;;;;;;4986984;28;20116;-87
2021/08/04 01:50:53;;;;;;;1.13;0.65;;;20.40;74.10;;;;;;4987028;28;20058;-85
2021/08/04 01:53:20;;;;;;;2.97;0.70;;;20.40;74.20;;;;;;4988386;28;20034;-88
2021/08/04 01:55:46;;;;;;;2.85;0.70;;;20.40;74.10;;;;;;4970417;28;20501;-87
2021/08/04 01:58:12;;;;;;;4.72;0.88;;;20.40;74.20;;;;;;4986879;28;20062;-87
2021/08/04 02:00:37;;;;;;;2.53;0.82;;;20.50;73.90;;;;;;4986009;28;20093;-86
2021/08/04 02:03:03;;;;;;;1.58;0.60;;;20.50;73.80;;;;;;4985562;28;20500;-87
2021/08/04 02:05:29;;;;;;;3.90;0.80;;;20.40;73.80;;;;;;4985770;28;20104;-86
2021/08/04 02:08:06;;;;;;;1.52;0.65;;;20.50;74.00;;;;;;4986885;28;20122;-83
2021/08/04 02:10:47;;;;;;;5.38;0.80;;;20.50;74.30;;;;;;4969345;28;20166;-84
2021/08/04 02:13:22;;;;;;;1.50;0.77;;;20.50;74.20;;;;;;4986752;28;20549;-85
2021/08/04 02:15:54;;;;;;;1.95;0.77;;;20.50;74.60;;;;;;4986795;28;20132;-84
2021/08/04 02:18:24;;;;;;;6.85;0.85;;;20.40;75.10;;;;;;4985602;28;20031;-81
2021/08/04 02:20:51;;;;;;;5.68;0.90;;;20.50;74.10;;;;;;4985267;28;20055;-84
2021/08/04 02:23:28;;;;;;;4.70;1.02;;;20.40;75.20;;;;;;4971738;28;20035;-86
2021/08/04 02:26:16;;;;;;;2.00;0.80;;;20.50;74.60;;;;;;4989109;28;20027;-80
2021/08/04 02:28:46;;;;;;;4.43;0.90;;;20.50;75.10;;;;;;4989028;28;20440;-85
2021/08/04 02:31:14;;;;;;;4.40;0.65;;;20.40;74.90;;;;;;4990431;28;20026;-86
2021/08/04 02:33:42;;;;;;;1.15;0.77;;;20.50;74.10;;;;;;4989195;28;20411;-84
2021/08/04 02:36:08;;;;;;;4.78;0.80;;;20.50;74.30;;;;;;4972109;28;20051;-86
2021/08/04 02:38:34;;;;;;;4.30;0.80;;;20.50;74.30;;;;;;4989095;28;20030;-85
2021/08/04 02:41:01;;;;;;;6.05;0.80;;;20.50;74.40;;;;;;4989224;28;20036;-83
2021/08/04 02:43:27;;;;;;;7.43;0.90;;;20.40;74.60;;;;;;4988945;28;20030;-84
2021/08/04 02:45:56;;;;;;;2.47;0.65;;;20.50;74.40;;;;;;4988389;28;20076;-84
2021/08/04 02:48:22;;;;;;;1.27;0.70;;;20.50;74.90;;;;;;4989272;28;20561;-88
2021/08/04 02:50:52;;;;;;;2.53;0.90;;;20.50;75.10;;;;;;4972869;28;20507;-87
2021/08/04 02:53:19;;;;;;;15.95;1.50;;;20.50;74.70;;;;;;4988446;28;20030;-83
2021/08/04 02:55:45;;;;;;;8.77;1.08;;;20.50;74.30;;;;;;4988485;28;20240;-87
2021/08/04 02:58:13;;;;;;;4.25;1.05;;;20.60;74.70;;;;;;4989892;28;20037;-86
2021/08/04 03:00:40;;;;;;;5.57;1.23;;;20.60;75.00;;;;;;4988757;28;20027;-88
2021/08/04 03:03:06;;;;;;;5.90;0.98;;;20.60;74.80;;;;;;4989426;28;20093;-85
2021/08/04 03:05:32;;;;;;;4.50;1.00;;;20.60;75.40;;;;;;4988663;28;20076;-88
2021/08/04 03:07:57;;;;;;;4.32;1.33;;;20.60;75.10;;;;;;4988383;28;20031;-87
2021/08/04 03:10:23;;;;;;;6.70;1.25;;;20.60;75.10;;;;;;4989234;28;20038;-84
2021/08/04 03:12:49;;;;;;;6.15;1.20;;;20.50;75.30;;;;;;4988861;28;20034;-85
2021/08/04 03:15:15;;;;;;;1.55;0.93;;;20.50;76.00;;;;;;4988101;28;20085;-86
2021/08/04 03:17:41;;;;;;;3.22;1.50;;;20.40;76.10;;;;;;4989846;28;20049;-85
2021/08/04 03:20:07;;;;;;;3.67;1.45;;;20.40;76.50;;;;;;4987940;28;20123;-84
2021/08/04 03:22:33;;;;;;;4.95;0.98;;;20.30;77.00;;;;;;4971976;28;20389;-86
2021/08/04 03:24:58;;;;;;;3.70;1.38;;;20.20;77.20;;;;;;4986994;28;20037;-86
2021/08/04 03:27:24;;;;;;;8.82;1.33;;;20.20;78.00;;;;;;4988680;28;20070;-82
2021/08/04 03:29:49;;;;;;;5.47;1.02;;;20.10;78.00;;;;;;4987414;28;20076;-80
2021/08/04 03:32:16;;;;;;;2.53;0.95;;;20.10;78.20;;;;;;4971175;28;20057;-79
2021/08/04 03:34:42;;;;;;;4.65;1.13;;;20.10;78.70;;;;;;4986392;28;20562;-87
2021/08/04 03:37:08;;;;;;;5.30;1.20;;;20.10;78.50;;;;;;4986976;28;20034;-86
2021/08/04 03:39:33;;;;;;;3.10;1.17;;;20.20;78.40;;;;;;4986498;28;20088;-87
2021/08/04 03:41:59;;;;;;;3.33;1.23;;;20.20;77.60;;;;;;4987060;28;20049;-87
2021/08/04 03:44:25;;;;;;;2.72;1.10;;;20.30;77.60;;;;;;4987446;28;20562;-83
2021/08/04 03:46:50;;;;;;;2.95;1.05;;;20.20;78.00;;;;;;4989149;28;20034;-87
2021/08/04 03:49:16;;;;;;;3.80;1.50;;;20.30;78.10;;;;;;4971721;28;20030;-85
2021/08/04 03:51:42;;;;;;;3.65;1.58;;;20.30;78.30;;;;;;4971144;28;20087;-83
2021/08/04 03:54:08;;;;;;;3.20;1.30;;;20.20;78.60;;;;;;4987574;28;20034;-85
2021/08/04 03:56:34;;;;;;;1.88;0.88;;;20.20;78.80;;;;;;4987611;28;20461;-86
2021/08/04 03:59:00;;;;;;;2.72;1.17;;;20.20;79.30;;;;;;4987138;28;20033;-85
2021/08/04 04:01:27;;;;;;;4.18;1.48;;;20.20;79.40;;;;;;4986816;28;20080;-84
2021/08/04 04:03:52;;;;;;;1.75;0.93;;;20.20;79.50;;;;;;4986900;28;20030;-84
2021/08/04 04:06:18;;;;;;;5.18;1.08;;;20.20;79.50;;;;;;4986252;28;20030;-86
2021/08/04 04:08:44;;;;;;;2.35;1.00;;;20.30;79.20;;;;;;4987944;28;20441;-87
2021/08/04 04:11:10;;;;;;;4.82;1.27;;;20.40;79.20;;;;;;4986117;28;20733;-86
2021/08/04 04:13:37;;;;;;;2.83;1.30;;;20.50;78.80;;;;;;4985583;28;20061;-87
2021/08/04 04:16:03;;;;;;;2.65;1.08;;;20.60;78.70;;;;;;4988055;28;20038;-88
2021/08/04 04:18:29;;;;;;;2.10;1.23;;;20.60;78.50;;;;;;4987428;28;20403;-86
2021/08/04 04:20:54;;;;;;;3.75;1.10;;;20.60;78.50;;;;;;4971019;28;20050;-86
2021/08/04 04:23:20;;;;;;;1.98;1.10;;;20.60;78.70;;;;;;4971206;28;20026;-85
2021/08/04 04:25:46;;;;;;;9.10;1.40;;;20.70;78.80;;;;;;4971483;28;20512;-87
2021/08/04 04:28:12;;;;;;;6.55;1.60;;;20.70;79.00;;;;;;4987890;28;20027;-89
2021/08/04 04:30:37;;;;;;;10.25;1.83;;;20.70;78.90;;;;;;4987805;28;20053;-87
2021/08/04 04:33:03;;;;;;;6.07;1.00;;;20.70;78.70;;;;;;4971121;28;20027;-86
2021/08/04 04:35:29;;;;;;;2.42;0.95;;;20.80;79.10;;;;;;4987091;28;20053;-86
2021/08/04 04:37:55;;;;;;;5.38;1.23;;;20.80;79.50;;;;;;4988221;28;20041;-87
2021/08/04 04:40:20;;;;;;;2.35;1.40;;;20.80;79.60;;;;;;4986619;28;20176;-82
2021/08/04 04:42:46;;;;;;;2.40;1.50;;;20.80;80.40;;;;;;4986684;28;20058;-87
2021/08/04 04:45:12;;;;;;;5.68;1.55;;;20.80;81.90;;;;;;4986447;28;20411;-87
2021/08/04 04:47:37;;;;;;;6.18;1.40;;;20.70;82.90;;;;;;4986738;28;20129;-87
2021/08/04 04:50:04;;;;;;;8.40;1.90;;;20.70;83.00;;;;;;4986855;28;20404;-86
2021/08/04 04:52:30;;;;;;;7.10;1.90;;;20.60;83.10;;;;;;4986425;28;20027;-85
2021/08/04 04:54:55;;;;;;;4.35;2.67;;;20.60;83.40;;;;;;4970077;28;20041;-85
2021/08/04 04:57:21;;;;;;;4.57;1.77;;;20.60;83.90;;;;;;4986109;28;20034;-88
2021/08/04 04:59:47;;;;;;;7.57;1.70;;;20.60;84.20;;;;;;4970534;28;20058;-86
2021/08/04 05:02:12;;;;;;;4.07;1.92;;;20.70;83.70;;;;;;4986597;28;20433;-87
2021/08/04 05:04:38;;;;;;;4.93;1.35;;;20.70;83.90;;;;;;4986277;28;20496;-84
2021/08/04 05:07:04;;;;;;;5.85;1.70;;;20.80;83.60;;;;;;4987663;28;20551;-86
2021/08/04 05:09:29;;;;;;;5.75;1.60;;;20.90;83.00;;;;;;4986031;28;20131;-85
2021/08/04 05:11:55;;;;;;;8.98;1.67;;;21.10;82.40;;;;;;4969529;28;20547;-83
2021/08/04 05:14:21;;;;;;;4.22;1.20;;;21.20;82.00;;;;;;4986942;28;20593;-84
2021/08/04 05:16:46;;;;;;;4.95;1.50;;;21.30;81.50;;;;;;4969991;28;20049;-86
2021/08/04 05:19:12;;;;;;;10.98;1.48;;;21.40;81.40;;;;;;4969969;28;20494;-84
2021/08/04 05:21:38;;;;;;;5.05;1.70;;;21.50;81.50;;;;;;4970102;28;20141;-86
2021/08/04 05:24:05;;;;;;;8.43;1.70;;;21.60;81.90;;;;;;4969911;28;20026;-86
2021/08/04 05:26:31;;;;;;;6.22;1.88;;;21.60;80.60;;;;;;4986164;28;20042;-85
2021/08/04 05:28:57;;;;;;;3.50;1.30;;;21.50;80.70;;;;;;4985964;28;20526;-86
2021/08/04 05:31:23;;;;;;;4.95;1.40;;;21.60;80.10;;;;;;4986119;28;20033;-85
2021/08/04 05:33:49;;;;;;;5.63;1.63;;;21.60;80.00;;;;;;4970011;28;20023;-85
2021/08/04 05:36:14;;;;;;;9.88;1.23;;;21.70;80.10;;;;;;4987211;28;20054;-86
2021/08/04 05:38:40;;;;;;;4.78;1.55;;;21.80;79.10;;;;;;4986786;28;20018;-85
2021/08/04 05:41:06;;;;;;;3.83;1.75;;;22.00;79.00;;;;;;4969239;28;20557;-84
2021/08/04 05:43:32;;;;;;;3.05;1.42;;;22.10;78.30;;;;;;4987316;28;20105;-84
2021/08/04 05:45:58;;;;;;;5.40;1.40;;;22.30;77.50;;;;;;4986400;28;20076;-84
2021/08/04 05:48:23;;;;;;;7.20;1.83;;;22.50;76.70;;;;;;4969412;28;20093;-83
2021/08/04 05:50:49;;;;;;;2.97;1.40;;;22.80;75.90;;;;;;4987030;28;20038;-84
2021/08/04 05:53:14;;;;;;;3.78;1.63;;;23.00;74.10;;;;;;4986318;28;20037;-82
2021/08/04 05:55:40;;;;;;;3.80;1.58;;;23.20;74.00;;;;;;4969292;28;20038;-83
2021/08/04 05:58:06;;;;;;;11.63;1.95;;;23.70;73.10;;;;;;4987096;28;20034;-83
2021/08/04 06:00:31;;;;;;;5.78;1.85;;;24.30;71.20;;;;;;4989760;28;20638;-83
2021/08/04 06:02:57;;;;;;;5.00;1.30;;;24.80;69.10;;;;;;4990239;28;20483;-81
2021/08/04 06:05:23;;;;;;;5.93;1.80;;;25.70;66.20;;;;;;4972778;28;20034;-81
2021/08/04 06:07:48;;;;;;;5.75;1.65;;;26.40;63.70;;;;;;4988745;28;20026;-82
2021/08/04 06:10:14;;;;;;;2.38;1.55;;;27.40;59.30;;;;;;4989037;28;20108;-81
2021/08/04 06:12:40;;;;;;;6.85;2.13;;;27.80;56.60;;;;;;4988610;28;20057;-82
2021/08/04 06:15:06;;;;;;;11.02;1.30;;;27.80;55.10;;;;;;4990023;28;20777;-81
2021/08/04 06:17:32;;;;;;;6.97;1.42;;;27.40;55.60;;;;;;4988672;28;20044;-83
2021/08/04 06:19:58;;;;;;;5.95;1.75;;;26.90;55.70;;;;;;4987511;28;20065;-80
2021/08/04 06:22:24;;;;;;;3.60;1.23;;;26.40;56.30;;;;;;4989154;28;20421;-74
2021/08/04 06:24:49;;;;;;;3.70;1.52;;;25.80;58.00;;;;;;4989875;28;20106;-78
2021/08/04 06:27:15;;;;;;;5.65;1.50;;;25.50;58.80;;;;;;4988949;28;20108;-81
2021/08/04 06:29:41;;;;;;;5.10;1.15;;;25.30;59.60;;;;;;4989607;28;20119;-82
2021/08/04 06:32:06;;;;;;;3.10;1.45;;;25.10;60.80;;;;;;4990628;28;20790;-83
2021/08/04 06:34:32;;;;;;;5.40;1.50;;;24.90;61.30;;;;;;4988773;28;20529;-83
2021/08/04 06:36:58;;;;;;;4.28;1.75;;;24.70;62.10;;;;;;4988544;28;20042;-82
2021/08/04 06:39:23;;;;;;;5.50;1.98;;;24.80;62.80;;;;;;4989615;28;20118;-82
2021/08/04 06:41:49;;;;;;;8.30;1.67;;;24.90;63.90;;;;;;4990279;28;20068;-81
2021/08/04 06:44:15;;;;;;;4.57;1.80;;;25.10;64.60;;;;;;4988297;28;20050;-80
2021/08/04 06:46:40;;;;;;;3.65;2.47;;;25.40;63.30;;;;;;4988324;28;20143;-80
2021/08/04 06:49:07;;;;;;;4.55;1.55;;;25.60;62.80;;;;;;4990123;28;20033;-80
2021/08/04 06:51:34;;;;;;;3.08;1.38;;;26.10;62.10;;;;;;4988756;28;20038;-82
2021/08/04 06:54:00;;;;;;;6.78;1.33;;;27.00;60.80;;;;;;4988587;28;20529;-81
2021/08/04 06:56:26;;;;;;;5.50;1.00;;;27.90;58.00;;;;;;4971807;28;20046;-82
2021/08/04 06:58:52;;;;;;;2.10;1.13;;;28.80;54.10;;;;;;4972338;28;20109;-81
2021/08/04 07:01:18;;;;;;;8.48;3.80;;;29.00;53.10;;;;;;4971922;28;20586;-80
2021/08/04 07:03:44;;;;;;;8.50;5.25;;;28.80;52.90;;;;;;4987815;28;20026;-82
2021/08/04 07:06:10;;;;;;;13.25;5.35;;;28.50;53.40;;;;;;4971980;28;20362;-81
2021/08/04 07:08:37;;;;;;;7.38;3.10;;;27.90;54.10;;;;;;4988226;28;20027;-82
2021/08/04 07:11:03;;;;;;;10.75;2.92;;;27.40;54.30;;;;;;4986501;28;20191;-81
2021/08/04 07:13:29;;;;;;;3.95;1.52;;;27.10;56.00;;;;;;4986926;28;20031;-82
2021/08/04 07:15:55;;;;;;;5.75;1.42;;;27.10;55.90;;;;;;4970219;28;20267;-82
2021/08/04 07:18:21;;;;;;;2.60;1.35;;;27.10;55.80;;;;;;4986302;28;20049;-81
2021/08/04 07:20:46;;;;;;;6.43;2.67;;;27.70;56.00;;;;;;4985517;28;20058;-81
2021/08/04 07:23:12;;;;;;;4.65;1.90;;;29.10;54.00;;;;;;4985301;28;20030;-81
2021/08/04 07:25:38;;;;;;;5.05;1.15;;;29.90;49.90;;;;;;4986758;28;20120;-83
2021/08/04 07:28:04;;;;;;;3.55;1.20;;;30.40;47.30;;;;;;4966972;28;20038;-81
2021/08/04 07:30:30;;;;;;;2.22;1.10;;;30.30;47.50;;;;;;4988516;28;20054;-82
2021/08/04 07:32:56;;;;;;;2.70;1.08;;;30.50;48.20;;;;;;4970408;28;20286;-82
2021/08/04 07:35:22;;;;;;;3.28;1.20;;;31.00;48.10;;;;;;4996477;28;20049;-82
2021/08/04 07:37:48;;;;;;;14.20;10.27;;;32.00;44.90;;;;;;5006802;28;20030;-81
2021/08/04 07:40:16;;;;;;;2.60;1.50;;;32.40;44.50;;;;;;4988401;28;20022;-82
2021/08/04 07:42:41;;;;;;;2.78;1.15;;;32.50;43.60;;;;;;5007140;28;20029;-82
2021/08/04 07:45:08;;;;;;;6.38;1.30;;;33.10;42.90;;;;;;4988900;28;20026;-82
2021/08/04 07:47:34;;;;;;;6.20;1.40;;;33.70;41.80;;;;;;4989647;28;20036;-82
2021/08/04 07:49:59;;;;;;;3.42;1.40;;;33.40;41.70;;;;;;4989510;28;20034;-80
2021/08/04 07:52:25;;;;;;;9.18;1.67;;;33.20;40.30;;;;;;4988922;28;20204;-81
2021/08/04 07:54:51;;;;;;;4.75;1.70;;;32.30;41.50;;;;;;4990370;28;20513;-82
2021/08/04 07:57:16;;;;;;;8.27;2.03;;;31.40;43.60;;;;;;4990333;28;20410;-81
2021/08/04 07:59:42;;;;;;;7.68;2.70;;;30.60;45.30;;;;;;5007736;28;20025;-81
2021/08/04 08:02:08;;;;;;;3.22;1.75;;;30.30;46.20;;;;;;5008009;28;20180;-81
2021/08/04 08:04:34;;;;;;;3.78;1.02;;;30.40;47.00;;;;;;5006605;28;20604;-82
2021/08/04 08:07:01;;;;;;;1.73;0.80;;;30.50;47.30;;;;;;4989307;28;20034;-82
2021/08/04 08:09:27;;;;;;;2.25;1.25;;;31.10;47.00;;;;;;4990065;28;20562;-81
2021/08/04 08:11:57;;;;;;;6.55;1.20;;;31.70;45.40;;;;;;5007987;28;20048;-82
2021/08/04 08:14:23;;;;;;;9.23;1.42;;;32.20;44.30;;;;;;5006546;28;20047;-80
2021/08/04 08:16:49;;;;;;;10.98;2.15;;;33.20;43.40;;;;;;4990022;28;20052;-83
2021/08/04 08:19:15;;;;;;;3.08;1.10;;;33.70;42.10;;;;;;4989539;28;20029;-82
2021/08/04 08:21:40;;;;;;;20.60;1.65;;;34.10;41.70;;;;;;4989005;28;20054;-80
2021/08/04 08:24:06;;;;;;;2.17;1.10;;;34.70;40.90;;;;;;5006679;28;20030;-82
2021/08/04 08:26:34;;;;;;;4.95;1.40;;;35.20;39.80;;;;;;5007541;28;20033;-81
2021/08/04 08:28:59;;;;;;;4.90;1.15;;;35.40;38.40;;;;;;5007423;28;20025;-81
2021/08/04 08:31:25;;;;;;;6.25;1.40;;;35.40;38.70;;;;;;5007477;28;20030;-83
2021/08/04 08:33:51;;;;;;;2.83;1.35;;;35.50;37.80;;;;;;5007430;28;20474;-81
2021/08/04 08:36:16;;;;;;;2.47;1.15;;;35.60;38.80;;;;;;4989430;28;20046;-83
2021/08/04 08:38:42;;;;;;;8.77;1.30;;;35.60;39.30;;;;;;4989780;28;20509;-82
2021/08/04 08:41:08;;;;;;;3.72;1.15;;;35.70;38.50;;;;;;5006751;28;20451;-81
2021/08/04 08:43:35;;;;;;;3.90;1.20;;;36.00;37.60;;;;;;4989292;28;20446;-82
2021/08/04 08:46:03;;;;;;;2.03;0.93;;;35.70;37.70;;;;;;5007134;28;20116;-82
2021/08/04 08:48:31;;;;;;;4.82;1.45;;;35.70;37.70;;;;;;4988645;28;20022;-80
2021/08/04 08:50:57;;;;;;;3.10;1.60;;;35.70;37.70;;;;;;4989438;28;20038;-81
2021/08/04 08:53:23;;;;;;;9.80;1.35;;;35.40;36.90;;;;;;4988637;28;20408;-83
2021/08/04 08:55:50;;;;;;;4.18;1.13;;;35.40;37.00;;;;;;5006300;28;20030;-82
2021/08/04 08:58:16;;;;;;;6.10;1.60;;;35.90;37.60;;;;;;4989430;28;20025;-80
2021/08/04 09:00:42;;;;;;;4.80;1.63;;;36.30;36.60;;;;;;5006532;28;20494;-82
2021/08/04 09:03:08;;;;;;;3.95;1.20;;;36.60;36.40;;;;;;4989106;28;20495;-81
2021/08/04 09:05:54;;;;;;;3.33;1.00;;;36.70;36.10;;;;;;5006631;28;20127;-82
2021/08/04 09:08:25;;;;;;;3.47;1.30;;;36.50;35.90;;;;;;5006427;28;20037;-82
2021/08/04 09:10:51;;;;;;;4.30;1.33;;;36.50;36.60;;;;;;4988870;28;20026;-81
2021/08/04 09:13:19;;;;;;;4.05;1.30;;;36.80;36.20;;;;;;5006669;28;20483;-81
2021/08/04 09:15:45;;;;;;;4.07;1.30;;;36.70;35.80;;;;;;4988732;28;20091;-82
2021/08/04 09:18:16;;;;;;;3.50;1.02;;;36.60;36.30;;;;;;4989210;28;20030;-81
2021/08/04 09:20:53;;;;;;;8.07;1.77;;;36.30;35.90;;;;;;5006156;28;20046;-81
2021/08/04 09:23:21;;;;;;;5.03;1.38;;;35.80;36.60;;;;;;4988495;28;20026;-82
2021/08/04 09:26:06;;;;;;;3.67;1.45;;;35.20;37.30;;;;;;4988896;28;20030;-81
2021/08/04 09:28:54;;;;;;;6.50;1.60;;;34.90;37.80;;;;;;4989335;28;20073;-81
2021/08/04 09:31:21;;;;;;;11.60;3.70;;;34.60;38.40;;;;;;4988611;28;20041;-81
2021/08/04 09:33:48;;;;;;;9.98;1.73;;;34.20;39.50;;;;;;4988162;28;20037;-80
2021/08/04 09:36:27;;;;;;;8.95;1.35;;;33.90;40.00;;;;;;5006106;28;20040;-80
2021/08/04 09:39:07;;;;;;;4.65;1.17;;;33.40;40.20;;;;;;5006341;28;20018;-81
2021/08/04 09:41:33;;;;;;;7.30;1.42;;;33.20;40.90;;;;;;4989084;28;20029;-82
2021/08/04 09:44:06;;;;;;;4.45;1.40;;;33.10;41.70;;;;;;4988740;28;20402;-81
2021/08/04 09:46:33;;;;;;;7.40;1.42;;;33.20;41.40;;;;;;4988627;28;20445;-80
2021/08/04 09:49:16;;;;;;;9.57;1.08;;;33.30;41.20;;;;;;4988713;28;20145;-81
2021/08/04 09:51:42;;;;;;;7.93;1.92;;;33.40;41.00;;;;;;4988583;28;20026;-80
2021/08/04 09:54:13;;;;;;;17.70;2.80;;;33.50;40.80;;;;;;4988919;28;20034;-82
2021/08/04 09:56:52;;;;;;;115.68;8.85;;;33.70;40.40;;;;;;4988623;28;20048;-81
2021/08/04 09:59:20;;;;;;;3.30;1.30;;;33.70;41.00;;;;;;5004326;28;20033;-81
2021/08/04 10:01:46;;;;;;;3.28;1.05;;;33.50;41.00;;;;;;5006470;28;21093;-80
2021/08/04 10:04:14;;;;;;;7.70;1.55;;;33.50;40.60;;;;;;5006252;28;20240;-82
2021/08/04 10:06:41;;;;;;;7.68;1.20;;;33.20;41.50;;;;;;4987751;28;20080;-81
2021/08/04 10:09:10;;;;;;;5.32;1.17;;;33.20;41.60;;;;;;5005752;28;20034;-82
2021/08/04 10:11:43;;;;;;;2.60;1.10;;;32.90;42.50;;;;;;4988447;28;20030;-81
2021/08/04 10:14:13;;;;;;;3.92;1.10;;;32.70;43.10;;;;;;4988509;28;20030;-82
2021/08/04 10:16:39;;;;;;;2.28;0.85;;;32.90;43.50;;;;;;5004370;28;20391;-81
2021/08/04 10:19:06;;;;;;;2.53;0.90;;;32.70;43.60;;;;;;5006110;28;20395;-81
2021/08/04 10:21:33;;;;;;;2.67;0.90;;;32.60;43.60;;;;;;4987435;28;20051;-81
2021/08/04 10:24:00;;;;;;;4.85;1.55;;;32.40;44.00;;;;;;4984621;28;20045;-80
2021/08/04 10:26:26;;;;;;;2.35;0.98;;;32.20;44.30;;;;;;4983870;28;20570;-82
2021/08/04 10:28:55;;;;;;;3.00;0.95;;;32.20;44.50;;;;;;4982987;28;20408;-80
2021/08/04 10:31:21;;;;;;;3.95;0.95;;;32.10;43.80;;;;;;4982475;28;20531;-80
2021/08/04 10:33:47;;;;;;;2.20;1.02;;;32.00;44.60;;;;;;4983407;28;20129;-81
2021/08/04 10:36:19;;;;;;;2.40;1.08;;;32.10;44.70;;;;;;4983220;28;20117;-81
2021/08/04 10:38:51;;;;;;;3.00;0.88;;;31.80;45.40;;;;;;4982767;28;20034;-80
2021/08/04 10:41:21;;;;;;;1.98;1.00;;;31.70;45.60;;;;;;4982287;28;20142;-79
2021/08/04 10:43:52;;;;;;;2.95;1.02;;;31.60;45.80;;;;;;4974704;28;20026;-81
2021/08/04 10:46:30;;;;;;;2.55;1.10;;;31.70;45.80;;;;;;4966727;28;20073;-81
2021/08/04 10:49:05;;;;;;;2.70;0.90;;;31.50;46.60;;;;;;4966817;28;20065;-80
2021/08/04 10:51:41;;;;;;;4.18;1.10;;;31.30;46.60;;;;;;4964056;28;20084;-80
2021/08/04 10:54:19;;;;;;;6.88;1.30;;;31.20;46.80;;;;;;4986051;28;20665;-80
2021/08/04 10:56:45;;;;;;;3.13;1.20;;;31.30;46.50;;;;;;4982033;28;20117;-81
2021/08/04 10:59:11;;;;;;;3.10;1.25;;;31.40;46.60;;;;;;4968735;28;20030;-81
2021/08/04 11:01:40;;;;;;;2.53;1.25;;;31.50;46.10;;;;;;4973430;28;20056;-81
2021/08/04 11:04:08;;;;;;;6.22;1.52;;;31.50;45.80;;;;;;4990666;28;20185;-80
2021/08/04 11:06:34;;;;;;;4.63;1.10;;;31.60;45.70;;;;;;4981838;28;20053;-80
2021/08/04 11:09:11;;;;;;;4.05;1.00;;;31.70;46.10;;;;;;4987969;28;20042;-79
2021/08/04 11:11:55;;;;;;;4.18;1.10;;;31.70;46.30;;;;;;4970819;28;20043;-79
2021/08/04 11:14:48;;;;;;;5.35;1.73;;;31.80;45.90;;;;;;4993150;28;20183;-80
2021/08/04 11:17:15;;;;;;;2.10;1.08;;;31.90;46.10;;;;;;4987716;28;20038;-79
2021/08/04 11:22:43;;;;;;;2.55;1.50;;;32.00;45.20;;;;;;4987756;28;20074;-80
2021/08/04 11:25:21;;;;;;;2.85;1.33;;;31.80;45.40;;;;;;4987660;28;20074;-79
2021/08/04 11:27:47;;;;;;;8.20;1.23;;;31.70;45.20;;;;;;4987092;28;20038;-79
2021/08/04 11:30:45;;;;;;;5.35;1.08;;;31.70;45.50;;;;;;4970513;28;20113;-79
2021/08/04 11:33:24;;;;;;;2.67;1.33;;;31.80;45.60;;;;;;4972088;28;20069;-80
2021/08/04 11:36:02;;;;;;;4.65;1.40;;;31.70;45.80;;;;;;4986016;28;20530;-80
2021/08/04 11:38:56;;;;;;;9.80;1.85;;;31.80;45.80;;;;;;4987415;28;20042;-81
2021/08/04 11:41:42;;;;;;;8.82;1.30;;;31.80;44.70;;;;;;4987648;28;20050;-80
2021/08/04 11:44:10;;;;;;;2.58;1.25;;;31.70;44.10;;;;;;4990377;28;20082;-79
2021/08/04 11:46:40;;;;;;;5.05;1.02;;;31.60;44.70;;;;;;4970347;28;20107;-79
2021/08/04 11:49:09;;;;;;;2.25;1.35;;;31.50;45.50;;;;;;4969354;28;20061;-79
2021/08/04 11:51:37;;;;;;;8.00;1.63;;;31.60;44.80;;;;;;4972777;28;20543;-80
2021/08/04 11:54:04;;;;;;;2.33;1.48;;;31.50;44.00;;;;;;4985596;28;20030;-80
2021/08/04 11:56:30;;;;;;;2.42;1.20;;;31.40;44.60;;;;;;4970409;28;20026;-81
2021/08/04 11:59:03;;;;;;;2.45;0.93;;;31.20;45.00;;;;;;4987318;28;20064;-81
2021/08/04 12:01:30;;;;;;;2.97;1.00;;;31.10;45.40;;;;;;4988527;28;20046;-82
2021/08/04 12:04:11;;;;;;;3.55;1.05;;;31.10;44.20;;;;;;4986591;28;20030;-81
2021/08/04 12:06:38;;;;;;;3.13;1.15;;;31.10;44.00;;;;;;4987277;28;20057;-81
2021/08/04 12:09:24;;;;;;;2.65;1.00;;;30.80;43.90;;;;;;4988418;28;20041;-81
2021/08/04 12:11:50;;;;;;;2.70;1.30;;;30.40;43.60;;;;;;4988574;28;20030;-81
2021/08/04 12:14:19;;;;;;;2.58;1.33;;;30.00;44.10;;;;;;4987019;28;20043;-81
2021/08/04 12:16:56;;;;;;;3.90;1.95;;;29.90;45.10;;;;;;4987563;28;20026;-81
2021/08/04 12:19:43;;;;;;;2.60;0.90;;;30.00;44.20;;;;;;4985918;28;20791;-79
2021/08/04 12:22:28;;;;;;;1.60;1.00;;;30.10;43.00;;;;;;4987643;28;20030;-81
2021/08/04 12:24:59;;;;;;;3.83;1.33;;;30.20;44.50;;;;;;4986317;28;20400;-80
2021/08/04 12:27:31;;;;;;;4.97;1.10;;;30.10;44.80;;;;;;4988021;28;20058;-81
2021/08/04 12:30:17;;;;;;;2.90;2.00;;;29.90;45.70;;;;;;4987883;28;20174;-80
2021/08/04 12:33:01;;;;;;;2.88;1.45;;;29.80;45.70;;;;;;4986834;28;20026;-80
2021/08/04 12:35:38;;;;;;;4.88;1.42;;;29.80;45.70;;;;;;4985617;28;20099;-80
2021/08/04 12:38:10;;;;;;;5.75;0.98;;;29.90;46.60;;;;;;4986337;28;20089;-81
2021/08/04 12:40:37;;;;;;;2.10;0.93;;;30.10;44.30;;;;;;4986473;28;20801;-81
2021/08/04 12:43:03;;;;;;;2.97;1.15;;;30.10;45.10;;;;;;4986271;28;20399;-81
2021/08/04 12:45:29;;;;;;;2.97;1.25;;;30.00;46.10;;;;;;4986019;28;20030;-80
2021/08/04 12:47:58;;;;;;;1.50;1.08;;;29.90;45.90;;;;;;4986170;28;20833;-81
2021/08/04 12:50:28;;;;;;;3.90;1.50;;;29.80;46.50;;;;;;4986313;28;20686;-81
2021/08/04 12:52:54;;;;;;;3.72;0.90;;;29.90;45.80;;;;;;4987432;28;20026;-80
2021/08/04 12:55:20;;;;;;;2.60;1.08;;;30.00;46.10;;;;;;4986997;28;20037;-81